sensor_id;sensor_type;location;lat;lon;timestamp;P1;durP1;ratioP1;P2;durP2;ratioP2
29940;SDS011;16801;53.562;10.038;2022-11-10T00:00:08;3.70;;;2.67;;
29940;SDS011;16801;53.562;10.038;2022-11-10T00:03:48;5.13;;;2.50;;
29940;SDS011;16801;53.562;10.038;2022-11-10T00:07:28;4.97;;;3.03;;
29940;SDS011;16801;53.562;10.038;2022-11-10T00:11:07;3.27;;;2.33;;
29940;SDS011;16801;53.562;10.038;2022-11-10T00:14:47;3.83;;;2.90;;
29940;SDS011;16801;53.562;10.038;2022-11-10T00:18:46;2.50;;;2.30;;
29940;SDS011;16801;53.562;10.038;2022-11-10T00:22:26;3.57;;;2.07;;
29940;SDS011;16801;53.562;10.038;2022-11-10T00:26:12;2.60;;;1.83;;
29940;SDS011;16801;53.562;10.038;2022-11-10T00:29:53;3.97;;;2.03;;
29940;SDS011;16801;53.562;10.038;2022-11-10T00:33:33;4.63;;;2.10;;
29940;SDS011;16801;53.562;10.038;2022-11-10T00:37:13;2.80;;;2.60;;
29940;SDS011;16801;53.562;10.038;2022-11-10T00:40:53;7.70;;;3.00;;
29940;SDS011;16801;53.562;10.038;2022-11-10T00:44:32;2.83;;;2.63;;
29940;SDS011;16801;53.562;10.038;2022-11-10T00:48:12;3.47;;;2.70;;
29940;SDS011;16801;53.562;10.038;2022-11-10T00:51:51;6.13;;;2.57;;
29940;SDS011;16801;53.562;10.038;2022-11-10T00:55:32;2.17;;;1.90;;
29940;SDS011;16801;53.562;10.038;2022-11-10T00:59:11;4.00;;;3.10;;
29940;SDS011;16801;53.562;10.038;2022-11-10T01:02:51;4.60;;;1.97;;
29940;SDS011;16801;53.562;10.038;2022-11-10T01:06:31;4.20;;;2.40;;
29940;SDS011;16801;53.562;10.038;2022-11-10T01:10:10;2.13;;;1.93;;
29940;SDS011;16801;53.562;10.038;2022-11-10T01:13:52;3.60;;;2.03;;
29940;SDS011;16801;53.562;10.038;2022-11-10T01:17:32;3.23;;;3.03;;
29940;SDS011;16801;53.562;10.038;2022-11-10T01:21:12;3.93;;;2.20;;
29940;SDS011;16801;53.562;10.038;2022-11-10T01:24:51;7.63;;;3.43;;
29940;SDS011;16801;53.562;10.038;2022-11-10T01:28:31;6.43;;;2.33;;
29940;SDS011;16801;53.562;10.038;2022-11-10T01:32:13;4.83;;;3.50;;
29940;SDS011;16801;53.562;10.038;2022-11-10T01:35:52;3.87;;;2.00;;
29940;SDS011;16801;53.562;10.038;2022-11-10T01:39:32;2.97;;;2.00;;
29940;SDS011;16801;53.562;10.038;2022-11-10T01:43:11;2.60;;;2.43;;
29940;SDS011;16801;53.562;10.038;2022-11-10T01:46:51;2.20;;;2.00;;
29940;SDS011;16801;53.562;10.038;2022-11-10T01:50:32;5.67;;;3.67;;
29940;SDS011;16801;53.562;10.038;2022-11-10T01:54:17;9.30;;;3.43;;
29940;SDS011;16801;53.562;10.038;2022-11-10T01:57:59;4.00;;;2.10;;
29940;SDS011;16801;53.562;10.038;2022-11-10T02:01:39;3.67;;;2.17;;
29940;SDS011;16801;53.562;10.038;2022-11-10T02:05:19;3.70;;;2.10;;
29940;SDS011;16801;53.562;10.038;2022-11-10T02:09:02;8.13;;;2.10;;
29940;SDS011;16801;53.562;10.038;2022-11-10T02:12:42;2.90;;;2.10;;
29940;SDS011;16801;53.562;10.038;2022-11-10T02:16:23;7.30;;;2.60;;
29940;SDS011;16801;53.562;10.038;2022-11-10T02:20:03;3.73;;;1.97;;
29940;SDS011;16801;53.562;10.038;2022-11-10T02:23:46;2.70;;;2.07;;
29940;SDS011;16801;53.562;10.038;2022-11-10T02:27:27;2.70;;;1.97;;
29940;SDS011;16801;53.562;10.038;2022-11-10T02:31:08;4.67;;;1.90;;
29940;SDS011;16801;53.562;10.038;2022-11-10T02:34:47;3.80;;;2.60;;
29940;SDS011;16801;53.562;10.038;2022-11-10T02:38:27;3.87;;;1.93;;
29940;SDS011;16801;53.562;10.038;2022-11-10T02:42:08;4.50;;;2.90;;
29940;SDS011;16801;53.562;10.038;2022-11-10T02:45:48;2.87;;;2.07;;
29940;SDS011;16801;53.562;10.038;2022-11-10T02:49:27;3.57;;;2.20;;
29940;SDS011;16801;53.562;10.038;2022-11-10T02:53:07;3.53;;;2.80;;
29940;SDS011;16801;53.562;10.038;2022-11-10T02:56:46;10.13;;;2.93;;
29940;SDS011;16801;53.562;10.038;2022-11-10T03:00:27;3.50;;;2.57;;
29940;SDS011;16801;53.562;10.038;2022-11-10T03:04:08;3.97;;;2.63;;
29940;SDS011;16801;53.562;10.038;2022-11-10T03:07:51;3.60;;;2.87;;
29940;SDS011;16801;53.562;10.038;2022-11-10T03:11:31;3.70;;;2.33;;
29940;SDS011;16801;53.562;10.038;2022-11-10T03:15:10;5.17;;;3.37;;
29940;SDS011;16801;53.562;10.038;2022-11-10T03:18:52;2.60;;;2.40;;
29940;SDS011;16801;53.562;10.038;2022-11-10T03:22:31;5.03;;;2.50;;
29940;SDS011;16801;53.562;10.038;2022-11-10T03:26:11;5.80;;;4.27;;
29940;SDS011;16801;53.562;10.038;2022-11-10T03:29:51;4.97;;;4.57;;
29940;SDS011;16801;53.562;10.038;2022-11-10T03:33:30;4.87;;;2.63;;
29940;SDS011;16801;53.562;10.038;2022-11-10T03:37:10;10.03;;;4.27;;
29940;SDS011;16801;53.562;10.038;2022-11-10T03:40:50;7.23;;;3.50;;
29940;SDS011;16801;53.562;10.038;2022-11-10T03:44:29;5.93;;;3.23;;
29940;SDS011;16801;53.562;10.038;2022-11-10T03:48:09;5.40;;;4.30;;
29940;SDS011;16801;53.562;10.038;2022-11-10T03:51:48;6.20;;;3.67;;
29940;SDS011;16801;53.562;10.038;2022-11-10T03:55:29;9.67;;;3.43;;
29940;SDS011;16801;53.562;10.038;2022-11-10T03:59:08;11.63;;;4.27;;
29940;SDS011;16801;53.562;10.038;2022-11-10T04:02:47;11.83;;;3.73;;
29940;SDS011;16801;53.562;10.038;2022-11-10T04:06:27;5.73;;;3.80;;
29940;SDS011;16801;53.562;10.038;2022-11-10T04:10:24;6.60;;;4.13;;
29940;SDS011;16801;53.562;10.038;2022-11-10T04:14:05;8.67;;;5.63;;
29940;SDS011;16801;53.562;10.038;2022-11-10T04:18:02;5.23;;;4.80;;
29940;SDS011;16801;53.562;10.038;2022-11-10T04:21:55;6.33;;;4.60;;
29940;SDS011;16801;53.562;10.038;2022-11-10T04:25:35;5.70;;;4.50;;
29940;SDS011;16801;53.562;10.038;2022-11-10T04:29:35;5.33;;;4.63;;
29940;SDS011;16801;53.562;10.038;2022-11-10T04:33:14;7.33;;;6.03;;
29940;SDS011;16801;53.562;10.038;2022-11-10T04:36:54;9.80;;;5.53;;
29940;SDS011;16801;53.562;10.038;2022-11-10T04:40:33;6.80;;;4.37;;
29940;SDS011;16801;53.562;10.038;2022-11-10T04:44:12;8.37;;;5.13;;
29940;SDS011;16801;53.562;10.038;2022-11-10T04:47:53;6.23;;;5.57;;
29940;SDS011;16801;53.562;10.038;2022-11-10T04:51:34;13.87;;;7.73;;
29940;SDS011;16801;53.562;10.038;2022-11-10T04:55:14;9.70;;;6.17;;
29940;SDS011;16801;53.562;10.038;2022-11-10T04:58:54;8.53;;;5.33;;
29940;SDS011;16801;53.562;10.038;2022-11-10T05:02:34;15.77;;;7.80;;
29940;SDS011;16801;53.562;10.038;2022-11-10T05:06:15;8.00;;;5.50;;
29940;SDS011;16801;53.562;10.038;2022-11-10T05:09:55;9.30;;;6.50;;
29940;SDS011;16801;53.562;10.038;2022-11-10T05:13:34;14.93;;;7.27;;
29940;SDS011;16801;53.562;10.038;2022-11-10T05:17:13;7.40;;;5.70;;
29940;SDS011;16801;53.562;10.038;2022-11-10T05:20:53;10.67;;;6.77;;
29940;SDS011;16801;53.562;10.038;2022-11-10T05:24:34;9.40;;;6.10;;
29940;SDS011;16801;53.562;10.038;2022-11-10T05:28:13;10.00;;;5.80;;
29940;SDS011;16801;53.562;10.038;2022-11-10T05:31:53;19.00;;;7.97;;
29940;SDS011;16801;53.562;10.038;2022-11-10T05:35:32;13.73;;;5.30;;
29940;SDS011;16801;53.562;10.038;2022-11-10T05:39:12;8.13;;;6.53;;
29940;SDS011;16801;53.562;10.038;2022-11-10T05:42:53;8.57;;;4.80;;
29940;SDS011;16801;53.562;10.038;2022-11-10T05:46:32;11.63;;;7.10;;
29940;SDS011;16801;53.562;10.038;2022-11-10T05:50:11;10.30;;;6.47;;
29940;SDS011;16801;53.562;10.038;2022-11-10T05:53:51;9.13;;;4.93;;
29940;SDS011;16801;53.562;10.038;2022-11-10T05:57:30;7.80;;;6.83;;
29940;SDS011;16801;53.562;10.038;2022-11-10T06:01:12;8.37;;;5.67;;
29940;SDS011;16801;53.562;10.038;2022-11-10T06:04:51;6.90;;;5.23;;
29940;SDS011;16801;53.562;10.038;2022-11-10T06:08:30;6.70;;;4.40;;
29940;SDS011;16801;53.562;10.038;2022-11-10T06:12:10;9.83;;;5.50;;
29940;SDS011;16801;53.562;10.038;2022-11-10T06:15:49;6.60;;;4.80;;
29940;SDS011;16801;53.562;10.038;2022-11-10T06:19:30;8.77;;;5.23;;
29940;SDS011;16801;53.562;10.038;2022-11-10T06:23:10;6.83;;;4.93;;
29940;SDS011;16801;53.562;10.038;2022-11-10T06:26:50;5.13;;;4.33;;
29940;SDS011;16801;53.562;10.038;2022-11-10T06:30:30;10.03;;;5.63;;
29940;SDS011;16801;53.562;10.038;2022-11-10T06:34:11;6.13;;;5.23;;
29940;SDS011;16801;53.562;10.038;2022-11-10T06:37:58;14.80;;;4.43;;
29940;SDS011;16801;53.562;10.038;2022-11-10T06:41:38;7.90;;;5.37;;
29940;SDS011;16801;53.562;10.038;2022-11-10T06:45:21;7.03;;;4.73;;
29940;SDS011;16801;53.562;10.038;2022-11-10T06:49:00;6.20;;;4.17;;
29940;SDS011;16801;53.562;10.038;2022-11-10T06:52:40;9.20;;;5.00;;
29940;SDS011;16801;53.562;10.038;2022-11-10T06:56:21;8.23;;;5.00;;
29940;SDS011;16801;53.562;10.038;2022-11-10T07:00:01;9.00;;;4.80;;
29940;SDS011;16801;53.562;10.038;2022-11-10T07:03:41;6.20;;;4.73;;
29940;SDS011;16801;53.562;10.038;2022-11-10T07:07:20;5.00;;;4.03;;
29940;SDS011;16801;53.562;10.038;2022-11-10T07:11:00;5.07;;;4.53;;
29940;SDS011;16801;53.562;10.038;2022-11-10T07:14:40;7.20;;;4.63;;
29940;SDS011;16801;53.562;10.038;2022-11-10T07:18:19;6.33;;;4.50;;
29940;SDS011;16801;53.562;10.038;2022-11-10T07:22:00;6.80;;;5.20;;
29940;SDS011;16801;53.562;10.038;2022-11-10T07:25:39;4.70;;;3.80;;
29940;SDS011;16801;53.562;10.038;2022-11-10T07:29:19;12.40;;;5.37;;
29940;SDS011;16801;53.562;10.038;2022-11-10T07:33:00;12.60;;;6.10;;
29940;SDS011;16801;53.562;10.038;2022-11-10T07:36:40;7.53;;;5.77;;
29940;SDS011;16801;53.562;10.038;2022-11-10T07:40:20;7.13;;;5.60;;
29940;SDS011;16801;53.562;10.038;2022-11-10T07:44:00;14.37;;;5.63;;
29940;SDS011;16801;53.562;10.038;2022-11-10T07:47:39;8.93;;;5.83;;
29940;SDS011;16801;53.562;10.038;2022-11-10T07:51:20;9.50;;;4.63;;
29940;SDS011;16801;53.562;10.038;2022-11-10T07:54:59;9.90;;;5.60;;
29940;SDS011;16801;53.562;10.038;2022-11-10T07:58:39;10.20;;;7.00;;
29940;SDS011;16801;53.562;10.038;2022-11-10T08:02:18;9.07;;;6.17;;
29940;SDS011;16801;53.562;10.038;2022-11-10T08:05:57;15.03;;;8.03;;
29940;SDS011;16801;53.562;10.038;2022-11-10T08:09:37;8.23;;;5.63;;
29940;SDS011;16801;53.562;10.038;2022-11-10T08:13:17;10.00;;;6.00;;
29940;SDS011;16801;53.562;10.038;2022-11-10T08:16:56;10.03;;;6.00;;
29940;SDS011;16801;53.562;10.038;2022-11-10T08:20:35;11.00;;;6.63;;
29940;SDS011;16801;53.562;10.038;2022-11-10T08:24:14;13.57;;;7.57;;
29940;SDS011;16801;53.562;10.038;2022-11-10T08:27:59;9.10;;;6.57;;
29940;SDS011;16801;53.562;10.038;2022-11-10T08:31:40;8.53;;;4.70;;
29940;SDS011;16801;53.562;10.038;2022-11-10T08:35:22;11.60;;;5.83;;
29940;SDS011;16801;53.562;10.038;2022-11-10T08:39:02;7.80;;;5.73;;
29940;SDS011;16801;53.562;10.038;2022-11-10T08:42:41;7.87;;;6.60;;
29940;SDS011;16801;53.562;10.038;2022-11-10T08:46:22;8.77;;;6.50;;
29940;SDS011;16801;53.562;10.038;2022-11-10T08:50:02;9.17;;;5.57;;
29940;SDS011;16801;53.562;10.038;2022-11-10T08:53:41;8.77;;;5.77;;
29940;SDS011;16801;53.562;10.038;2022-11-10T08:57:21;7.67;;;5.47;;
29940;SDS011;16801;53.562;10.038;2022-11-10T09:01:01;8.40;;;6.40;;
29940;SDS011;16801;53.562;10.038;2022-11-10T09:04:42;8.90;;;5.67;;
29940;SDS011;16801;53.562;10.038;2022-11-10T09:08:21;7.80;;;6.33;;
29940;SDS011;16801;53.562;10.038;2022-11-10T09:12:01;11.97;;;6.80;;
29940;SDS011;16801;53.562;10.038;2022-11-10T09:15:40;10.43;;;6.97;;
29940;SDS011;16801;53.562;10.038;2022-11-10T09:19:21;9.67;;;6.53;;
29940;SDS011;16801;53.562;10.038;2022-11-10T09:23:04;9.70;;;5.83;;
29940;SDS011;16801;53.562;10.038;2022-11-10T09:26:44;10.63;;;6.53;;
29940;SDS011;16801;53.562;10.038;2022-11-10T09:30:24;9.33;;;6.33;;
29940;SDS011;16801;53.562;10.038;2022-11-10T09:34:05;11.20;;;5.93;;
29940;SDS011;16801;53.562;10.038;2022-11-10T09:37:44;8.87;;;5.47;;
29940;SDS011;16801;53.562;10.038;2022-11-10T09:41:25;8.20;;;5.13;;
29940;SDS011;16801;53.562;10.038;2022-11-10T09:45:10;10.07;;;6.97;;
29940;SDS011;16801;53.562;10.038;2022-11-10T09:48:59;9.20;;;5.50;;
29940;SDS011;16801;53.562;10.038;2022-11-10T09:52:44;13.43;;;5.60;;
29940;SDS011;16801;53.562;10.038;2022-11-10T09:56:30;9.37;;;4.90;;
29940;SDS011;16801;53.562;10.038;2022-11-10T10:00:12;8.33;;;5.53;;
29940;SDS011;16801;53.562;10.038;2022-11-10T10:03:59;12.90;;;5.03;;
29940;SDS011;16801;53.562;10.038;2022-11-10T10:07:45;15.80;;;6.53;;
29940;SDS011;16801;53.562;10.038;2022-11-10T10:11:35;6.57;;;5.17;;
29940;SDS011;16801;53.562;10.038;2022-11-10T10:15:22;6.70;;;5.63;;
29940;SDS011;16801;53.562;10.038;2022-11-10T10:19:13;5.73;;;4.87;;
29940;SDS011;16801;53.562;10.038;2022-11-10T10:23:01;10.07;;;5.03;;
29940;SDS011;16801;53.562;10.038;2022-11-10T10:26:51;7.40;;;4.90;;
29940;SDS011;16801;53.562;10.038;2022-11-10T10:30:32;8.53;;;5.17;;
29940;SDS011;16801;53.562;10.038;2022-11-10T10:34:12;9.27;;;5.70;;
29940;SDS011;16801;53.562;10.038;2022-11-10T10:37:54;10.07;;;5.53;;
29940;SDS011;16801;53.562;10.038;2022-11-10T10:41:35;7.70;;;4.97;;
29940;SDS011;16801;53.562;10.038;2022-11-10T10:45:19;10.70;;;4.20;;
29940;SDS011;16801;53.562;10.038;2022-11-10T10:49:07;5.20;;;3.60;;
29940;SDS011;16801;53.562;10.038;2022-11-10T10:57:01;10.37;;;5.27;;
29940;SDS011;16801;53.562;10.038;2022-11-10T11:00:44;14.13;;;4.43;;
29940;SDS011;16801;53.562;10.038;2022-11-10T11:04:26;18.13;;;6.70;;
29940;SDS011;16801;53.562;10.038;2022-11-10T11:08:15;8.93;;;5.53;;
29940;SDS011;16801;53.562;10.038;2022-11-10T11:11:59;7.00;;;5.37;;
29940;SDS011;16801;53.562;10.038;2022-11-10T11:15:41;10.03;;;5.30;;
29940;SDS011;16801;53.562;10.038;2022-11-10T11:19:22;8.70;;;3.57;;
29940;SDS011;16801;53.562;10.038;2022-11-10T11:23:05;10.20;;;5.97;;
29940;SDS011;16801;53.562;10.038;2022-11-10T11:26:53;8.07;;;4.60;;
29940;SDS011;16801;53.562;10.038;2022-11-10T11:30:40;10.07;;;3.60;;
29940;SDS011;16801;53.562;10.038;2022-11-10T11:34:35;10.13;;;4.90;;
29940;SDS011;16801;53.562;10.038;2022-11-10T11:38:23;10.27;;;5.30;;
29940;SDS011;16801;53.562;10.038;2022-11-10T11:42:13;9.43;;;6.70;;
29940;SDS011;16801;53.562;10.038;2022-11-10T11:46:05;8.77;;;5.73;;
29940;SDS011;16801;53.562;10.038;2022-11-10T11:50:01;5.43;;;4.53;;
29940;SDS011;16801;53.562;10.038;2022-11-10T11:53:56;6.30;;;3.97;;
29940;SDS011;16801;53.562;10.038;2022-11-10T12:02:10;11.03;;;5.33;;
29940;SDS011;16801;53.562;10.038;2022-11-10T12:06:08;13.37;;;4.30;;
29940;SDS011;16801;53.562;10.038;2022-11-10T12:10:02;16.00;;;6.50;;
29940;SDS011;16801;53.562;10.038;2022-11-10T12:13:55;6.20;;;4.50;;
29940;SDS011;16801;53.562;10.038;2022-11-10T12:17:45;7.63;;;4.53;;
29940;SDS011;16801;53.562;10.038;2022-11-10T12:21:38;4.53;;;3.30;;
29940;SDS011;16801;53.562;10.038;2022-11-10T12:25:24;7.03;;;3.17;;
29940;SDS011;16801;53.562;10.038;2022-11-10T12:29:12;6.50;;;3.93;;
29940;SDS011;16801;53.562;10.038;2022-11-10T12:33:00;7.27;;;3.73;;
29940;SDS011;16801;53.562;10.038;2022-11-10T12:36:46;5.53;;;3.70;;
29940;SDS011;16801;53.562;10.038;2022-11-10T12:40:30;5.13;;;4.13;;
29940;SDS011;16801;53.562;10.038;2022-11-10T12:44:16;8.60;;;3.50;;
29940;SDS011;16801;53.562;10.038;2022-11-10T12:48:02;4.53;;;3.10;;
29940;SDS011;16801;53.562;10.038;2022-11-10T12:51:44;9.60;;;4.00;;
29940;SDS011;16801;53.562;10.038;2022-11-10T12:55:33;5.13;;;2.67;;
29940;SDS011;16801;53.562;10.038;2022-11-10T12:59:22;4.83;;;2.50;;
29940;SDS011;16801;53.562;10.038;2022-11-10T13:03:11;4.17;;;2.67;;
29940;SDS011;16801;53.562;10.038;2022-11-10T13:07:04;7.23;;;3.30;;
29940;SDS011;16801;53.562;10.038;2022-11-10T13:10:51;10.63;;;4.33;;
29940;SDS011;16801;53.562;10.038;2022-11-10T13:14:33;7.93;;;3.10;;
29940;SDS011;16801;53.562;10.038;2022-11-10T13:18:20;4.67;;;3.23;;
29940;SDS011;16801;53.562;10.038;2022-11-10T13:22:04;5.03;;;3.40;;
29940;SDS011;16801;53.562;10.038;2022-11-10T13:25:51;6.73;;;3.10;;
29940;SDS011;16801;53.562;10.038;2022-11-10T13:29:32;3.50;;;3.20;;
29940;SDS011;16801;53.562;10.038;2022-11-10T13:33:32;4.23;;;3.47;;
29940;SDS011;16801;53.562;10.038;2022-11-10T13:41:29;5.33;;;3.17;;
29940;SDS011;16801;53.562;10.038;2022-11-10T13:45:25;5.10;;;3.50;;
29940;SDS011;16801;53.562;10.038;2022-11-10T13:49:12;7.47;;;2.30;;
29940;SDS011;16801;53.562;10.038;2022-11-10T13:53:03;6.03;;;4.37;;
29940;SDS011;16801;53.562;10.038;2022-11-10T13:57:09;10.10;;;3.23;;
29940;SDS011;16801;53.562;10.038;2022-11-10T14:04:59;4.70;;;2.50;;
29940;SDS011;16801;53.562;10.038;2022-11-10T14:08:43;4.07;;;2.63;;
29940;SDS011;16801;53.562;10.038;2022-11-10T14:12:28;8.47;;;3.03;;
29940;SDS011;16801;53.562;10.038;2022-11-10T14:16:14;3.63;;;2.13;;
29940;SDS011;16801;53.562;10.038;2022-11-10T14:19:56;3.60;;;3.00;;
29940;SDS011;16801;53.562;10.038;2022-11-10T14:23:44;4.10;;;2.30;;
29940;SDS011;16801;53.562;10.038;2022-11-10T14:27:27;8.83;;;2.93;;
29940;SDS011;16801;53.562;10.038;2022-11-10T14:31:10;5.80;;;2.83;;
29940;SDS011;16801;53.562;10.038;2022-11-10T14:34:57;3.33;;;2.57;;
29940;SDS011;16801;53.562;10.038;2022-11-10T14:38:41;8.80;;;3.27;;
29940;SDS011;16801;53.562;10.038;2022-11-10T14:42:24;8.47;;;1.90;;
29940;SDS011;16801;53.562;10.038;2022-11-10T14:46:06;4.67;;;3.13;;
29940;SDS011;16801;53.562;10.038;2022-11-10T14:49:45;13.40;;;3.13;;
29940;SDS011;16801;53.562;10.038;2022-11-10T14:53:25;5.80;;;2.70;;
29940;SDS011;16801;53.562;10.038;2022-11-10T14:57:12;2.27;;;2.03;;
29940;SDS011;16801;53.562;10.038;2022-11-10T15:00:57;12.53;;;3.20;;
29940;SDS011;16801;53.562;10.038;2022-11-10T15:04:37;2.43;;;2.23;;
29940;SDS011;16801;53.562;10.038;2022-11-10T15:08:17;5.27;;;4.37;;
29940;SDS011;16801;53.562;10.038;2022-11-10T15:12:17;8.17;;;4.73;;
29940;SDS011;16801;53.562;10.038;2022-11-10T15:20:01;5.57;;;2.43;;
29940;SDS011;16801;53.562;10.038;2022-11-10T15:23:41;6.27;;;1.97;;
29940;SDS011;16801;53.562;10.038;2022-11-10T15:27:24;9.30;;;4.13;;
29940;SDS011;16801;53.562;10.038;2022-11-10T15:31:06;6.60;;;1.93;;
29940;SDS011;16801;53.562;10.038;2022-11-10T15:34:50;5.93;;;2.27;;
29940;SDS011;16801;53.562;10.038;2022-11-10T15:38:31;14.33;;;2.20;;
29940;SDS011;16801;53.562;10.038;2022-11-10T15:42:12;5.13;;;2.43;;
29940;SDS011;16801;53.562;10.038;2022-11-10T15:45:54;5.57;;;3.07;;
29940;SDS011;16801;53.562;10.038;2022-11-10T15:49:36;4.63;;;2.67;;
29940;SDS011;16801;53.562;10.038;2022-11-10T15:53:19;4.97;;;1.83;;
29940;SDS011;16801;53.562;10.038;2022-11-10T15:57:02;6.63;;;1.97;;
29940;SDS011;16801;53.562;10.038;2022-11-10T16:00:41;6.90;;;2.30;;
29940;SDS011;16801;53.562;10.038;2022-11-10T16:04:20;8.17;;;2.43;;
29940;SDS011;16801;53.562;10.038;2022-11-10T16:08:00;5.07;;;1.70;;
29940;SDS011;16801;53.562;10.038;2022-11-10T16:11:41;3.43;;;1.87;;
29940;SDS011;16801;53.562;10.038;2022-11-10T16:15:22;5.43;;;1.90;;
29940;SDS011;16801;53.562;10.038;2022-11-10T16:19:01;11.83;;;3.03;;
29940;SDS011;16801;53.562;10.038;2022-11-10T16:22:40;3.13;;;2.83;;
29940;SDS011;16801;53.562;10.038;2022-11-10T16:26:21;4.43;;;1.77;;
29940;SDS011;16801;53.562;10.038;2022-11-10T16:30:04;4.83;;;3.20;;
29940;SDS011;16801;53.562;10.038;2022-11-10T16:33:50;4.80;;;1.70;;
29940;SDS011;16801;53.562;10.038;2022-11-10T16:37:30;5.03;;;3.17;;
29940;SDS011;16801;53.562;10.038;2022-11-10T16:41:10;4.27;;;1.30;;
29940;SDS011;16801;53.562;10.038;2022-11-10T16:44:50;4.43;;;1.63;;
29940;SDS011;16801;53.562;10.038;2022-11-10T16:48:31;3.77;;;1.80;;
29940;SDS011;16801;53.562;10.038;2022-11-10T16:52:13;4.53;;;1.80;;
29940;SDS011;16801;53.562;10.038;2022-11-10T16:55:53;3.60;;;1.30;;
29940;SDS011;16801;53.562;10.038;2022-11-10T16:59:33;4.83;;;1.63;;
29940;SDS011;16801;53.562;10.038;2022-11-10T17:03:13;4.37;;;2.23;;
29940;SDS011;16801;53.562;10.038;2022-11-10T17:06:56;2.83;;;2.27;;
29940;SDS011;16801;53.562;10.038;2022-11-10T17:10:36;3.60;;;1.53;;
29940;SDS011;16801;53.562;10.038;2022-11-10T17:14:15;7.00;;;2.50;;
29940;SDS011;16801;53.562;10.038;2022-11-10T17:17:55;8.50;;;2.57;;
29940;SDS011;16801;53.562;10.038;2022-11-10T17:21:35;4.90;;;1.83;;
29940;SDS011;16801;53.562;10.038;2022-11-10T17:25:17;2.30;;;1.60;;
29940;SDS011;16801;53.562;10.038;2022-11-10T17:29:02;4.13;;;2.07;;
29940;SDS011;16801;53.562;10.038;2022-11-10T17:32:42;5.70;;;2.10;;
29940;SDS011;16801;53.562;10.038;2022-11-10T17:36:21;11.27;;;3.30;;
29940;SDS011;16801;53.562;10.038;2022-11-10T17:40:02;6.07;;;2.20;;
29940;SDS011;16801;53.562;10.038;2022-11-10T17:43:55;6.43;;;2.17;;
29940;SDS011;16801;53.562;10.038;2022-11-10T17:47:35;2.53;;;1.63;;
29940;SDS011;16801;53.562;10.038;2022-11-10T17:51:16;5.83;;;2.13;;
29940;SDS011;16801;53.562;10.038;2022-11-10T17:54:57;4.73;;;1.97;;
29940;SDS011;16801;53.562;10.038;2022-11-10T17:58:36;4.53;;;2.07;;
29940;SDS011;16801;53.562;10.038;2022-11-10T18:02:16;2.20;;;2.00;;
29940;SDS011;16801;53.562;10.038;2022-11-10T18:05:56;4.40;;;2.53;;
29940;SDS011;16801;53.562;10.038;2022-11-10T18:09:35;2.13;;;1.40;;
29940;SDS011;16801;53.562;10.038;2022-11-10T18:13:14;1.63;;;1.37;;
29940;SDS011;16801;53.562;10.038;2022-11-10T18:16:54;2.60;;;1.80;;
29940;SDS011;16801;53.562;10.038;2022-11-10T18:20:35;9.33;;;2.07;;
29940;SDS011;16801;53.562;10.038;2022-11-10T18:24:14;8.73;;;2.83;;
29940;SDS011;16801;53.562;10.038;2022-11-10T18:27:54;3.60;;;1.33;;
29940;SDS011;16801;53.562;10.038;2022-11-10T18:31:34;5.37;;;2.17;;
29940;SDS011;16801;53.562;10.038;2022-11-10T18:35:13;8.27;;;1.90;;
29940;SDS011;16801;53.562;10.038;2022-11-10T18:38:56;4.70;;;2.03;;
29940;SDS011;16801;53.562;10.038;2022-11-10T18:42:35;10.57;;;4.43;;
29940;SDS011;16801;53.562;10.038;2022-11-10T18:46:14;4.70;;;1.50;;
29940;SDS011;16801;53.562;10.038;2022-11-10T18:49:54;9.30;;;3.10;;
29940;SDS011;16801;53.562;10.038;2022-11-10T18:53:33;10.53;;;2.67;;
29940;SDS011;16801;53.562;10.038;2022-11-10T18:57:13;8.30;;;1.63;;
29940;SDS011;16801;53.562;10.038;2022-11-10T19:01:00;5.60;;;2.63;;
29940;SDS011;16801;53.562;10.038;2022-11-10T19:04:40;3.17;;;1.70;;
29940;SDS011;16801;53.562;10.038;2022-11-10T19:08:20;1.40;;;0.90;;
29940;SDS011;16801;53.562;10.038;2022-11-10T19:11:59;7.87;;;2.10;;
29940;SDS011;16801;53.562;10.038;2022-11-10T19:15:40;4.30;;;2.90;;
29940;SDS011;16801;53.562;10.038;2022-11-10T19:19:19;4.03;;;1.13;;
29940;SDS011;16801;53.562;10.038;2022-11-10T19:22:59;4.40;;;3.17;;
29940;SDS011;16801;53.562;10.038;2022-11-10T19:26:38;1.60;;;1.30;;
29940;SDS011;16801;53.562;10.038;2022-11-10T19:30:17;6.40;;;1.43;;
29940;SDS011;16801;53.562;10.038;2022-11-10T19:33:58;7.97;;;2.07;;
29940;SDS011;16801;53.562;10.038;2022-11-10T19:37:38;4.13;;;2.03;;
29940;SDS011;16801;53.562;10.038;2022-11-10T19:41:18;6.10;;;1.87;;
29940;SDS011;16801;53.562;10.038;2022-11-10T19:44:59;2.53;;;1.20;;
29940;SDS011;16801;53.562;10.038;2022-11-10T19:48:39;7.20;;;1.70;;
29940;SDS011;16801;53.562;10.038;2022-11-10T19:52:20;3.30;;;2.33;;
29940;SDS011;16801;53.562;10.038;2022-11-10T19:56:00;3.40;;;1.57;;
29940;SDS011;16801;53.562;10.038;2022-11-10T19:59:42;3.70;;;1.17;;
29940;SDS011;16801;53.562;10.038;2022-11-10T20:03:21;2.30;;;1.27;;
29940;SDS011;16801;53.562;10.038;2022-11-10T20:07:01;4.27;;;1.53;;
29940;SDS011;16801;53.562;10.038;2022-11-10T20:10:59;5.80;;;1.73;;
29940;SDS011;16801;53.562;10.038;2022-11-10T20:14:40;6.30;;;2.83;;
29940;SDS011;16801;53.562;10.038;2022-11-10T20:18:20;3.43;;;1.60;;
29940;SDS011;16801;53.562;10.038;2022-11-10T20:22:00;1.87;;;1.50;;
29940;SDS011;16801;53.562;10.038;2022-11-10T20:25:39;2.13;;;1.93;;
29940;SDS011;16801;53.562;10.038;2022-11-10T20:29:20;3.93;;;1.23;;
29940;SDS011;16801;53.562;10.038;2022-11-10T20:32:59;4.67;;;1.87;;
29940;SDS011;16801;53.562;10.038;2022-11-10T20:36:39;3.60;;;2.27;;
29940;SDS011;16801;53.562;10.038;2022-11-10T20:40:18;5.30;;;2.03;;
29940;SDS011;16801;53.562;10.038;2022-11-10T20:43:58;2.77;;;2.43;;
29940;SDS011;16801;53.562;10.038;2022-11-10T20:47:38;1.53;;;1.40;;
29940;SDS011;16801;53.562;10.038;2022-11-10T20:51:18;5.80;;;1.33;;
29940;SDS011;16801;53.562;10.038;2022-11-10T20:54:58;6.20;;;4.00;;
29940;SDS011;16801;53.562;10.038;2022-11-10T20:58:38;1.50;;;1.40;;
29940;SDS011;16801;53.562;10.038;2022-11-10T21:02:17;1.67;;;1.57;;
29940;SDS011;16801;53.562;10.038;2022-11-10T21:05:58;1.47;;;1.13;;
29940;SDS011;16801;53.562;10.038;2022-11-10T21:09:40;6.07;;;2.03;;
29940;SDS011;16801;53.562;10.038;2022-11-10T21:13:19;7.67;;;1.90;;
29940;SDS011;16801;53.562;10.038;2022-11-10T21:16:59;0.90;;;0.80;;
29940;SDS011;16801;53.562;10.038;2022-11-10T21:20:39;2.23;;;1.60;;
29940;SDS011;16801;53.562;10.038;2022-11-10T21:24:19;2.30;;;1.73;;
29940;SDS011;16801;53.562;10.038;2022-11-10T21:28:00;5.47;;;1.40;;
29940;SDS011;16801;53.562;10.038;2022-11-10T21:31:40;4.33;;;1.30;;
29940;SDS011;16801;53.562;10.038;2022-11-10T21:35:19;1.60;;;1.10;;
29940;SDS011;16801;53.562;10.038;2022-11-10T21:38:59;5.63;;;1.97;;
29940;SDS011;16801;53.562;10.038;2022-11-10T21:42:39;9.20;;;3.37;;
29940;SDS011;16801;53.562;10.038;2022-11-10T21:46:19;3.13;;;1.33;;
29940;SDS011;16801;53.562;10.038;2022-11-10T21:49:59;1.93;;;1.67;;
29940;SDS011;16801;53.562;10.038;2022-11-10T21:53:38;4.70;;;1.87;;
29940;SDS011;16801;53.562;10.038;2022-11-10T21:57:18;4.07;;;2.33;;
29940;SDS011;16801;53.562;10.038;2022-11-10T22:01:03;5.43;;;1.87;;
29940;SDS011;16801;53.562;10.038;2022-11-10T22:04:43;5.07;;;1.80;;
29940;SDS011;16801;53.562;10.038;2022-11-10T22:08:23;6.37;;;1.93;;
29940;SDS011;16801;53.562;10.038;2022-11-10T22:12:02;2.10;;;1.80;;
29940;SDS011;16801;53.562;10.038;2022-11-10T22:16:13;3.47;;;2.37;;